CNP8 weather

Greenbank Airport
Greenbank, Ontario, Canada

Public forecast

Using degrees Celsius for public forecast. Weather courtesy of forecast.io.

METAR (pilot weather report)

Closest report is Toronto/Oshawa Executive Airport, 13.6 nm (25.3 km) SSE. Retrieved 2019/04/20 10:24 UTC (19 minutes ago):

CYOO 201024Z AUTO 03007KT 9SM OVC017 05/04 A2973 RMK SLP073

TAF (pilot weather forecast)

Closest forecast is Toronto/Oshawa Executive Airport, 13.6 nm (25.3 km) SSE. Retrieved 2019/04/20 08:00 UTC (3 hours ago):

TAF CYOO 200740Z 2008/2020 02010G20KT 6SM BR SCT008 OVC020 TEMPO 2008/2017 3SM -RA -DZ BR BKN008 OVC020 FM201700 05012G22KT 6SM -RA BR OVC012 TEMPO 2017/2020 3SM SHRA BR OVC008 RMK FCST BASED ON AUTO OBS. NXT FCST BY 201400Z